createdAt,value
2023-11-15T00:01:57.163Z,3.22
2023-11-15T00:04:35.081Z,3.24
2023-11-15T00:07:14.865Z,3.26
2023-11-15T00:09:51.848Z,3.28
2023-11-15T00:12:21.681Z,3.24
2023-11-15T00:14:57.611Z,3.26
2023-11-15T00:17:41.859Z,3.28
2023-11-15T00:20:14.671Z,3.24
2023-11-15T00:22:52.581Z,3.28
2023-11-15T00:25:26.410Z,3.24
2023-11-15T00:27:55.930Z,3.27
2023-11-15T00:30:28.111Z,3.23
2023-11-15T00:33:00.594Z,3.21
2023-11-15T00:35:34.917Z,3.32
2023-11-15T00:38:07.518Z,3.28
2023-11-15T00:40:39.844Z,3.11
2023-11-15T00:45:44.934Z,3.36
2023-11-15T00:48:17.159Z,3.39
2023-11-15T00:50:47.792Z,3.36
2023-11-15T00:53:21.193Z,3.31
2023-11-15T00:56:00.035Z,3.36
2023-11-15T00:58:39.840Z,3.33
2023-11-15T01:01:14.722Z,3.36
2023-11-15T01:03:57.464Z,3.35
2023-11-15T01:09:15.873Z,3.41
2023-11-15T01:11:57.224Z,3.38
2023-11-15T01:14:37.609Z,3.31
2023-11-15T01:17:10.058Z,3.26
2023-11-15T01:19:47.244Z,3.24
2023-11-15T01:22:18.037Z,3.26
2023-11-15T01:24:50.450Z,3.03
2023-11-15T01:27:26.354Z,3.28
2023-11-15T01:30:07.847Z,3.27
2023-11-15T01:32:37.959Z,3.30
2023-11-15T01:35:20.319Z,3.28
2023-11-15T01:37:55.189Z,3.26
2023-11-15T01:40:30.210Z,3.05
2023-11-15T01:43:11.330Z,2.83
2023-11-15T01:45:44.287Z,2.89
2023-11-15T01:48:17.185Z,2.75
2023-11-15T01:51:06.374Z,2.62
2023-11-15T01:53:53.739Z,2.47
2023-11-15T01:56:29.513Z,2.51
2023-11-15T01:59:08.422Z,2.41
2023-11-15T02:01:44.979Z,2.41
2023-11-15T02:04:20.916Z,2.34
2023-11-15T02:07:00.671Z,2.35
2023-11-15T02:09:37.093Z,2.40
2023-11-15T02:12:14.707Z,2.40
2023-11-15T02:14:51.199Z,2.23
2023-11-15T02:17:23.825Z,2.40
2023-11-15T02:19:59.053Z,2.44
2023-11-15T02:22:33.769Z,2.49
2023-11-15T02:25:14.362Z,2.52
2023-11-15T02:27:49.455Z,2.48
2023-11-15T02:30:23.467Z,2.56
2023-11-15T02:32:54.159Z,2.62
2023-11-15T02:35:31.104Z,2.61
2023-11-15T02:38:13.078Z,2.64
2023-11-15T02:40:58.200Z,2.66
2023-11-15T02:43:34.964Z,2.66
2023-11-15T02:46:17.411Z,2.63
2023-11-15T02:48:57.190Z,2.58
2023-11-15T02:51:32.080Z,2.64
2023-11-15T02:54:09.642Z,2.63
2023-11-15T02:56:46.573Z,2.76
2023-11-15T02:59:16.535Z,2.70
2023-11-15T03:01:56.146Z,2.68
2023-11-15T03:04:27.569Z,2.58
2023-11-15T03:06:59.827Z,2.57
2023-11-15T03:09:38.472Z,2.62
2023-11-15T03:12:17.224Z,2.67
2023-11-15T03:14:57.541Z,2.77
2023-11-15T03:17:33.773Z,2.80
2023-11-15T03:20:06.418Z,2.78
2023-11-15T03:22:41.864Z,2.82
2023-11-15T03:25:12.439Z,2.84
2023-11-15T03:27:48.562Z,2.89
2023-11-15T03:30:24.089Z,2.90
2023-11-15T03:33:02.531Z,2.90
2023-11-15T03:35:40.901Z,2.91
2023-11-15T03:38:13.529Z,2.82
2023-11-15T03:40:45.116Z,2.80
2023-11-15T03:43:24.453Z,2.87
2023-11-15T03:45:59.976Z,2.73
2023-11-15T03:48:46.482Z,2.79
2023-11-15T03:51:20.551Z,2.72
2023-11-15T03:53:54.296Z,2.59
2023-11-15T03:56:24.291Z,1.94
2023-11-15T03:59:02.249Z,2.62
2023-11-15T04:01:48.580Z,2.55
2023-11-15T04:04:36.845Z,2.39
2023-11-15T04:07:13.502Z,2.09
2023-11-15T04:09:52.785Z,2.15
2023-11-15T04:12:26.508Z,2.08
2023-11-15T04:15:04.581Z,1.99
2023-11-15T04:17:35.907Z,2.07
2023-11-15T04:20:15.796Z,2.09
2023-11-15T04:22:46.918Z,2.20
2023-11-15T04:25:24.103Z,2.23
2023-11-15T04:27:56.206Z,2.39
2023-11-15T04:30:30.983Z,2.29
2023-11-15T04:33:04.053Z,2.30
2023-11-15T04:35:40.746Z,2.38
2023-11-15T04:38:18.130Z,2.42
2023-11-15T04:40:55.093Z,2.52
2023-11-15T04:43:25.029Z,2.71
2023-11-15T04:46:00.897Z,2.54
2023-11-15T04:48:34.515Z,2.51
2023-11-15T04:51:04.222Z,2.55
2023-11-15T04:53:41.377Z,2.58
2023-11-15T04:56:16.014Z,2.49
2023-11-15T04:58:47.825Z,2.25
2023-11-15T05:01:26.812Z,2.14
2023-11-15T05:03:56.662Z,1.95
2023-11-15T05:09:07.128Z,1.68
2023-11-15T05:11:46.181Z,1.52
2023-11-15T05:14:18.574Z,1.39
2023-11-15T05:16:59.871Z,1.35
2023-11-15T05:19:43.533Z,1.24
2023-11-15T05:22:22.458Z,1.15
2023-11-15T05:24:55.326Z,0.93
2023-11-15T05:27:30.420Z,1.11
2023-11-15T05:30:04.949Z,1.21
2023-11-15T05:32:44.291Z,1.21
2023-11-15T05:35:19.176Z,1.19
2023-11-15T05:37:52.576Z,1.28
2023-11-15T05:40:28.317Z,1.39
2023-11-15T05:43:12.931Z,1.40
2023-11-15T05:46:08.677Z,1.44
2023-11-15T05:48:54.958Z,1.48
2023-11-15T05:51:30.814Z,1.50
2023-11-15T05:56:59.832Z,2.02
2023-11-15T06:02:19.928Z,2.69
2023-11-15T06:04:54.097Z,2.94
2023-11-15T06:07:29.566Z,3.05
2023-11-15T06:10:04.464Z,3.23
2023-11-15T06:15:48.835Z,3.65
2023-11-15T06:18:22.791Z,3.60
2023-11-15T06:20:59.676Z,3.49
2023-11-15T06:23:38.659Z,3.41
2023-11-15T06:26:19.087Z,3.55
2023-11-15T06:28:57.314Z,2.97
2023-11-15T06:31:28.889Z,2.58
2023-11-15T06:34:02.262Z,4.13
2023-11-15T06:36:43.470Z,3.85
2023-11-15T06:39:22.008Z,4.55
2023-11-15T06:44:37.449Z,4.72
2023-11-15T06:47:17.571Z,5.19
2023-11-15T06:49:49.341Z,5.43
2023-11-15T06:52:34.259Z,5.40
2023-11-15T06:55:07.760Z,5.69
2023-11-15T06:57:50.701Z,5.93
2023-11-15T07:00:27.462Z,6.01
2023-11-15T07:03:00.838Z,6.10
2023-11-15T07:05:51.205Z,6.02
2023-11-15T07:08:48.011Z,5.39
2023-11-15T07:11:22.400Z,5.56
2023-11-15T07:14:05.443Z,5.76
2023-11-15T07:16:35.155Z,6.02
2023-11-15T07:19:12.629Z,5.90
2023-11-15T07:21:58.622Z,5.84
2023-11-15T07:24:42.685Z,5.96
2023-11-15T07:27:28.620Z,6.14
2023-11-15T07:30:12.693Z,6.25
2023-11-15T07:32:53.181Z,5.92
2023-11-15T07:35:30.451Z,6.02
2023-11-15T07:38:10.467Z,5.97
2023-11-15T07:40:47.862Z,5.88
2023-11-15T07:43:19.200Z,5.63
2023-11-15T07:45:56.060Z,5.57
2023-11-15T07:48:31.976Z,5.70
2023-11-15T07:51:19.515Z,5.74
2023-11-15T07:54:01.897Z,5.97
2023-11-15T07:56:40.454Z,6.00
2023-11-15T07:59:12.656Z,6.00
2023-11-15T08:01:45.961Z,5.73
2023-11-15T08:04:27.558Z,5.89
2023-11-15T08:07:06.561Z,5.84
2023-11-15T08:09:37.712Z,5.79
2023-11-15T08:12:15.360Z,5.73
2023-11-15T08:14:55.564Z,5.68
2023-11-15T08:17:27.448Z,5.64
2023-11-15T08:20:01.336Z,5.64
2023-11-15T08:22:37.027Z,5.63
2023-11-15T08:25:13.328Z,5.47
2023-11-15T08:27:45.564Z,5.34
2023-11-15T08:30:19.370Z,5.37
2023-11-15T08:33:09.413Z,5.34
2023-11-15T08:35:51.185Z,5.28
2023-11-15T08:38:26.404Z,5.14
2023-11-15T08:40:58.295Z,4.90
2023-11-15T08:44:04.818Z,4.75
2023-11-15T08:46:47.239Z,4.69
2023-11-15T08:49:21.417Z,4.61
2023-11-15T08:51:58.367Z,4.57
2023-11-15T08:57:18.300Z,4.21
2023-11-15T08:59:58.289Z,4.07
2023-11-15T09:02:32.912Z,4.05
2023-11-15T09:05:21.752Z,4.14
2023-11-15T09:08:00.907Z,4.21
2023-11-15T09:10:32.897Z,4.18
2023-11-15T09:13:09.107Z,4.21
2023-11-15T09:15:48.291Z,4.14
2023-11-15T09:18:27.227Z,4.22
2023-11-15T09:24:04.141Z,4.55
2023-11-15T09:26:36.860Z,4.64
2023-11-15T09:29:10.624Z,4.81
2023-11-15T09:31:47.456Z,4.89
2023-11-15T09:34:20.841Z,4.88
2023-11-15T09:37:07.433Z,4.82
2023-11-15T09:39:47.808Z,4.79
2023-11-15T09:42:21.758Z,4.54
2023-11-15T09:44:52.964Z,4.18
2023-11-15T09:47:33.207Z,3.98
2023-11-15T09:50:16.047Z,3.77
2023-11-15T09:52:50.742Z,3.47
2023-11-15T09:55:24.202Z,3.26
2023-11-15T09:57:59.244Z,3.46
2023-11-15T10:00:36.537Z,3.43
2023-11-15T10:03:20.010Z,3.41
2023-11-15T10:06:07.345Z,3.35
2023-11-15T10:08:41.450Z,3.25
2023-11-15T10:11:16.869Z,3.18
2023-11-15T10:13:52.311Z,3.28
2023-11-15T10:16:32.199Z,3.39
2023-11-15T10:19:24.809Z,3.65
2023-11-15T10:22:06.487Z,3.75
2023-11-15T10:24:44.412Z,3.84
2023-11-15T10:27:25.666Z,3.93
2023-11-15T10:30:04.425Z,3.93
2023-11-15T10:32:39.631Z,4.21
2023-11-15T10:35:19.921Z,4.47
2023-11-15T10:40:45.031Z,5.05
2023-11-15T10:43:31.514Z,5.09
2023-11-15T10:46:03.962Z,4.96
2023-11-15T10:48:38.252Z,5.10
2023-11-15T10:51:25.805Z,5.25
2023-11-15T10:54:02.139Z,5.33
2023-11-15T10:56:36.355Z,5.25
2023-11-15T10:59:07.610Z,5.15
2023-11-15T11:01:39.424Z,5.08
2023-11-15T11:04:17.629Z,5.01
2023-11-15T11:09:47.696Z,5.10
2023-11-15T11:12:31.321Z,5.02
2023-11-15T11:15:36.849Z,4.96
2023-11-15T11:18:23.423Z,4.82
2023-11-15T11:21:03.675Z,4.93
2023-11-15T11:24:19.645Z,4.97
2023-11-15T11:26:54.920Z,4.90
2023-11-15T11:29:27.962Z,5.09
2023-11-15T11:32:35.184Z,5.45
2023-11-15T11:35:40.300Z,5.74
2023-11-15T11:38:13.021Z,5.75
2023-11-15T11:40:56.918Z,5.53
2023-11-15T11:43:32.365Z,5.37
2023-11-15T11:46:19.236Z,5.41
2023-11-15T11:48:49.041Z,5.29
2023-11-15T11:51:21.943Z,5.10
2023-11-15T11:53:55.658Z,4.90
2023-11-15T11:56:37.382Z,4.69
2023-11-15T11:59:14.822Z,4.60
2023-11-15T12:01:56.732Z,4.44
2023-11-15T12:04:31.544Z,4.37
2023-11-15T12:07:05.183Z,4.35
2023-11-15T12:09:37.897Z,4.25
2023-11-15T12:12:13.372Z,4.26
2023-11-15T12:14:53.589Z,4.23
2023-11-15T12:17:29.418Z,4.05
2023-11-15T12:20:08.461Z,3.87
2023-11-15T12:22:43.609Z,3.83
2023-11-15T12:25:24.930Z,3.87
2023-11-15T12:28:04.105Z,3.75
2023-11-15T12:30:41.694Z,3.54
2023-11-15T12:33:18.101Z,3.55
2023-11-15T12:35:52.191Z,3.49
2023-11-15T12:38:25.368Z,3.46
2023-11-15T12:47:55.393Z,3.18
2023-11-15T12:50:31.875Z,3.10
2023-11-15T12:53:15.820Z,3.11
2023-11-15T12:56:00.761Z,3.04
2023-11-15T12:58:50.061Z,3.01
2023-11-15T13:01:26.163Z,2.91
2023-11-15T13:04:02.042Z,3.08
2023-11-15T13:06:48.176Z,3.14
2023-11-15T13:12:03.114Z,3.23
2023-11-15T13:17:15.083Z,3.17
2023-11-15T13:19:55.095Z,3.08
2023-11-15T13:22:31.823Z,3.09
2023-11-15T13:25:11.355Z,3.04
2023-11-15T13:27:43.312Z,3.07
2023-11-15T13:30:17.605Z,3.09
2023-11-15T13:32:50.785Z,3.09
2023-11-15T13:35:28.404Z,3.09
2023-11-15T13:38:01.251Z,3.08
2023-11-15T13:40:35.003Z,3.02
2023-11-15T13:43:13.347Z,3.10
2023-11-15T13:45:46.933Z,3.07
2023-11-15T13:48:26.574Z,3.08
2023-11-15T13:51:06.775Z,3.08
2023-11-15T13:53:40.583Z,3.10
2023-11-15T13:56:13.180Z,3.07
2023-11-15T13:58:46.340Z,3.11
2023-11-15T14:01:18.374Z,3.01
2023-11-15T14:03:56.522Z,3.01
2023-11-15T14:06:33.588Z,2.98
2023-11-15T14:09:10.080Z,2.97
2023-11-15T14:11:45.531Z,3.01
2023-11-15T14:14:16.780Z,3.07
2023-11-15T14:16:50.009Z,3.06
2023-11-15T14:19:25.296Z,3.09
2023-11-15T14:21:59.529Z,3.11
2023-11-15T14:24:31.649Z,3.06
2023-11-15T14:29:43.125Z,3.10
2023-11-15T14:32:19.563Z,3.10
2023-11-15T14:34:57.029Z,3.11
2023-11-15T14:37:35.088Z,3.15
2023-11-15T14:40:12.731Z,3.14
2023-11-15T14:42:49.173Z,3.05
2023-11-15T14:45:28.340Z,3.02
2023-11-15T14:48:00.290Z,2.97
2023-11-15T14:50:39.670Z,2.65
2023-11-15T14:53:31.593Z,2.96
2023-11-15T14:56:12.741Z,3.00
2023-11-15T14:58:53.563Z,2.97
2023-11-15T15:01:27.623Z,3.00
2023-11-15T15:04:00.005Z,2.99
2023-11-15T15:06:30.180Z,3.03
2023-11-15T15:09:06.168Z,3.04
2023-11-15T15:11:39.662Z,3.13
2023-11-15T15:14:12.756Z,3.03
2023-11-15T15:19:24.171Z,3.09
2023-11-15T15:21:56.343Z,2.92
2023-11-15T15:24:33.456Z,3.19
2023-11-15T15:27:09.161Z,3.28
2023-11-15T15:29:50.678Z,3.30
2023-11-15T15:32:25.928Z,3.33
2023-11-15T15:34:59.219Z,3.37
2023-11-15T15:37:39.948Z,3.40
2023-11-15T15:40:23.512Z,3.42
2023-11-15T15:43:07.624Z,3.45
2023-11-15T15:45:45.009Z,3.40
2023-11-15T15:48:32.954Z,3.25
2023-11-15T15:51:08.955Z,2.84
2023-11-15T15:53:47.492Z,3.21
2023-11-15T15:56:23.834Z,3.21
2023-11-15T15:59:06.619Z,3.18
2023-11-15T16:01:40.681Z,3.19
2023-11-15T16:04:22.947Z,3.22
2023-11-15T16:07:03.201Z,3.29
2023-11-15T16:09:45.508Z,3.22
2023-11-15T16:12:25.369Z,3.10
2023-11-15T16:14:59.053Z,3.04
2023-11-15T16:20:22.888Z,3.04
2023-11-15T16:22:57.895Z,2.54
2023-11-15T16:25:47.140Z,2.89
2023-11-15T16:28:22.229Z,2.82
2023-11-15T16:31:00.476Z,2.88
2023-11-15T16:33:35.373Z,2.93
2023-11-15T16:36:14.009Z,2.96
2023-11-15T16:38:54.306Z,2.93
2023-11-15T16:41:29.237Z,2.98
2023-11-15T16:44:12.728Z,3.10
2023-11-15T16:50:00.762Z,3.17
2023-11-15T16:52:42.606Z,2.99
2023-11-15T16:55:20.930Z,2.92
2023-11-15T17:00:44.636Z,2.94
2023-11-15T17:03:21.907Z,2.90
2023-11-15T17:05:55.428Z,2.95
2023-11-15T17:08:29.961Z,2.95
2023-11-15T17:11:03.911Z,2.95
2023-11-15T17:13:37.467Z,3.08
2023-11-15T17:16:13.503Z,3.11
2023-11-15T17:18:49.278Z,3.00
2023-11-15T17:21:29.440Z,2.94
2023-11-15T17:24:06.975Z,2.99
2023-11-15T17:26:39.153Z,3.03
2023-11-15T17:29:16.022Z,2.91
2023-11-15T17:31:51.795Z,2.89
2023-11-15T17:34:35.638Z,2.94
2023-11-15T17:37:12.922Z,2.94
2023-11-15T17:39:46.415Z,2.92
2023-11-15T17:42:18.378Z,2.96
2023-11-15T17:45:00.715Z,2.91
2023-11-15T17:47:40.665Z,2.89
2023-11-15T17:50:14.549Z,2.74
2023-11-15T17:52:45.170Z,2.72
2023-11-15T17:55:19.589Z,2.57
2023-11-15T18:00:37.975Z,2.52
2023-11-15T18:03:12.048Z,2.65
2023-11-15T18:08:36.239Z,2.85
2023-11-15T18:11:25.532Z,2.78
2023-11-15T18:13:58.197Z,2.71
2023-11-15T18:16:37.704Z,2.55
2023-11-15T18:19:23.309Z,2.47
2023-11-15T18:22:01.264Z,2.39
2023-11-15T18:24:33.297Z,2.45
2023-11-15T18:27:17.063Z,2.53
2023-11-15T18:29:54.740Z,2.55
2023-11-15T18:32:27.041Z,2.56
2023-11-15T18:35:02.731Z,2.71
2023-11-15T18:37:36.828Z,2.78
2023-11-15T18:40:22.104Z,2.89
2023-11-15T18:42:53.237Z,2.94
2023-11-15T18:45:26.566Z,2.85
2023-11-15T18:47:59.136Z,2.75
2023-11-15T18:50:35.406Z,2.59
2023-11-15T18:53:35.114Z,2.72
2023-11-15T18:56:17.808Z,1.87
2023-11-15T18:58:56.292Z,2.41
2023-11-15T19:01:28.047Z,2.68
2023-11-15T19:04:03.652Z,2.86
2023-11-15T19:06:39.191Z,2.78
2023-11-15T19:09:18.319Z,2.59
2023-11-15T19:11:53.027Z,2.90
2023-11-15T19:14:25.347Z,2.89
2023-11-15T19:16:57.698Z,2.83
2023-11-15T19:19:31.004Z,2.83
2023-11-15T19:22:05.858Z,2.62
2023-11-15T19:24:45.954Z,2.69
2023-11-15T19:27:17.090Z,2.69
2023-11-15T19:29:55.389Z,2.65
2023-11-15T19:32:33.780Z,2.37
2023-11-15T19:35:11.022Z,2.54
2023-11-15T19:37:44.116Z,2.69
2023-11-15T19:40:16.723Z,2.73
2023-11-15T19:42:55.425Z,2.80
2023-11-15T19:45:32.554Z,2.73
2023-11-15T19:48:02.540Z,2.78
2023-11-15T19:50:40.343Z,2.75
2023-11-15T19:53:20.475Z,2.70
2023-11-15T19:55:58.254Z,2.72
2023-11-15T19:58:29.567Z,2.71
2023-11-15T20:01:08.581Z,2.74
2023-11-15T20:03:44.945Z,2.74
2023-11-15T20:06:20.330Z,2.73
2023-11-15T20:08:54.773Z,2.78
2023-11-15T20:11:27.026Z,2.82
2023-11-15T20:13:57.651Z,2.73
2023-11-15T20:16:29.659Z,2.70
2023-11-15T20:19:00.972Z,2.89
2023-11-15T20:21:31.410Z,2.86
2023-11-15T20:24:06.717Z,2.88
2023-11-15T20:26:39.293Z,2.90
2023-11-15T20:29:11.073Z,2.92
2023-11-15T20:31:43.439Z,3.13
2023-11-15T20:34:30.253Z,2.94
2023-11-15T20:37:03.282Z,3.10
2023-11-15T20:39:40.335Z,3.15
2023-11-15T20:42:15.753Z,2.92
2023-11-15T20:44:50.098Z,3.05
2023-11-15T20:47:30.898Z,2.98
2023-11-15T20:50:05.608Z,2.90
2023-11-15T20:52:38.350Z,2.94
2023-11-15T20:55:16.279Z,2.93
2023-11-15T20:57:47.601Z,2.89
2023-11-15T21:00:26.432Z,2.91
2023-11-15T21:03:00.756Z,2.98
2023-11-15T21:05:37.966Z,3.07
2023-11-15T21:08:17.479Z,3.08
2023-11-15T21:10:50.437Z,3.19
2023-11-15T21:16:06.965Z,3.18
2023-11-15T21:18:46.895Z,3.10
2023-11-15T21:21:22.009Z,2.78
2023-11-15T21:23:55.379Z,2.95
2023-11-15T21:26:32.723Z,2.95
2023-11-15T21:29:13.893Z,3.04
2023-11-15T21:31:52.247Z,2.98
2023-11-15T21:34:39.465Z,3.07
2023-11-15T21:37:24.026Z,2.93
2023-11-15T21:39:59.225Z,2.85
2023-11-15T21:42:43.001Z,2.78
2023-11-15T21:45:24.854Z,2.72
2023-11-15T21:48:05.613Z,2.68
2023-11-15T21:51:04.387Z,2.54
2023-11-15T21:54:01.524Z,1.19
2023-11-15T21:56:37.061Z,1.18
2023-11-15T21:59:14.802Z,2.50
2023-11-15T22:01:50.793Z,2.40
2023-11-15T22:04:42.393Z,2.55
2023-11-15T22:07:20.225Z,2.64
2023-11-15T22:09:49.827Z,2.30
2023-11-15T22:12:21.827Z,2.75
2023-11-15T22:15:08.748Z,2.80
2023-11-15T22:17:50.629Z,2.74
2023-11-15T22:20:28.796Z,2.72
2023-11-15T22:23:08.081Z,2.51
2023-11-15T22:25:48.542Z,2.78
2023-11-15T22:28:25.224Z,2.72
2023-11-15T22:31:00.650Z,2.83
2023-11-15T22:33:36.704Z,2.85
2023-11-15T22:36:16.492Z,3.01
2023-11-15T22:38:56.247Z,2.90
2023-11-15T22:41:31.757Z,2.81
2023-11-15T22:44:13.180Z,2.94
2023-11-15T22:46:52.723Z,2.98
2023-11-15T22:49:38.439Z,3.01
2023-11-15T22:52:14.792Z,2.98
2023-11-15T22:54:46.845Z,2.88
2023-11-15T22:57:18.311Z,2.87
2023-11-15T23:02:30.098Z,2.84
2023-11-15T23:05:11.878Z,2.85
2023-11-15T23:07:57.660Z,2.84
2023-11-15T23:10:41.822Z,2.90
2023-11-15T23:13:16.592Z,2.84
2023-11-15T23:15:52.301Z,2.83
2023-11-15T23:18:26.658Z,2.79
2023-11-15T23:20:58.027Z,2.81
2023-11-15T23:23:33.180Z,2.75
2023-11-15T23:26:10.690Z,2.82
2023-11-15T23:28:50.556Z,2.86
2023-11-15T23:31:35.748Z,2.89
2023-11-15T23:34:19.150Z,2.88
2023-11-15T23:37:08.588Z,2.95
2023-11-15T23:39:49.908Z,2.89
2023-11-15T23:42:26.307Z,2.73
2023-11-15T23:45:01.248Z,2.75
2023-11-15T23:47:40.982Z,2.54
2023-11-15T23:50:23.902Z,2.51
2023-11-15T23:52:57.456Z,2.51
2023-11-15T23:55:29.224Z,2.69
2023-11-15T23:58:04.283Z,2.72
